createdAt,value
2022-11-05T00:01:36.070Z,2.13
2022-11-05T00:04:03.482Z,2.00
2022-11-05T00:06:31.992Z,2.13
2022-11-05T00:08:59.094Z,2.33
2022-11-05T00:11:26.219Z,2.03
2022-11-05T00:13:53.322Z,2.22
2022-11-05T00:16:20.422Z,2.10
2022-11-05T00:18:47.534Z,2.00
2022-11-05T00:21:14.618Z,2.05
2022-11-05T00:23:43.039Z,2.22
2022-11-05T00:26:11.578Z,1.90
2022-11-05T00:28:39.618Z,2.10
2022-11-05T00:31:08.828Z,2.05
2022-11-05T00:33:36.370Z,2.13
2022-11-05T00:36:04.635Z,2.35
2022-11-05T00:38:31.853Z,2.03
2022-11-05T00:41:00.657Z,2.00
2022-11-05T00:43:28.052Z,1.70
2022-11-05T00:45:55.406Z,1.70
2022-11-05T00:48:22.562Z,1.80
2022-11-05T00:50:49.669Z,1.80
2022-11-05T00:53:16.765Z,2.00
2022-11-05T00:55:45.344Z,2.10
2022-11-05T00:58:15.498Z,1.67
2022-11-05T01:00:44.090Z,1.75
2022-11-05T01:03:14.362Z,2.30
2022-11-05T01:05:43.561Z,1.80
2022-11-05T01:08:11.227Z,1.88
2022-11-05T01:10:43.462Z,2.13
2022-11-05T01:13:13.218Z,1.95
2022-11-05T01:15:42.429Z,2.00
2022-11-05T01:18:09.982Z,1.98
2022-11-05T01:20:37.194Z,1.67
2022-11-05T01:23:08.872Z,1.70
2022-11-05T01:25:39.165Z,1.75
2022-11-05T01:28:06.373Z,1.70
2022-11-05T01:30:33.470Z,1.80
2022-11-05T01:33:02.010Z,2.03
2022-11-05T01:35:29.532Z,1.42
2022-11-05T01:37:56.640Z,2.17
2022-11-05T01:40:24.993Z,1.80
2022-11-05T01:42:52.105Z,2.10
2022-11-05T01:45:21.730Z,1.60
2022-11-05T01:47:56.391Z,1.60
2022-11-05T01:50:39.662Z,1.80
2022-11-05T01:53:12.956Z,1.70
2022-11-05T01:55:43.396Z,1.88
2022-11-05T01:58:14.223Z,1.73
2022-11-05T02:00:43.022Z,1.80
2022-11-05T02:03:13.305Z,1.50
2022-11-05T02:05:42.700Z,2.40
2022-11-05T02:08:15.595Z,1.40
2022-11-05T02:10:45.736Z,1.85
2022-11-05T02:13:13.210Z,1.60
2022-11-05T02:15:57.241Z,1.40
2022-11-05T02:18:36.194Z,1.42
2022-11-05T02:21:27.306Z,1.50
2022-11-05T02:24:26.552Z,1.70
2022-11-05T02:27:16.139Z,1.35
2022-11-05T02:30:07.543Z,1.40
2022-11-05T02:32:57.736Z,1.70
2022-11-05T02:35:42.763Z,1.65
2022-11-05T02:38:17.521Z,1.48
2022-11-05T02:40:52.683Z,1.65
2022-11-05T02:43:28.224Z,1.80
2022-11-05T02:46:03.285Z,1.40
2022-11-05T02:48:45.021Z,1.80
2022-11-05T02:51:18.223Z,1.50
2022-11-05T02:53:50.887Z,1.40
2022-11-05T02:56:22.497Z,1.80
2022-11-05T02:58:49.572Z,1.90
2022-11-05T03:01:16.979Z,1.50
2022-11-05T03:03:48.732Z,1.45
2022-11-05T03:06:48.110Z,1.70
2022-11-05T03:09:38.804Z,1.70
2022-11-05T03:12:18.134Z,1.48
2022-11-05T03:14:52.952Z,1.70
2022-11-05T03:17:42.633Z,1.42
2022-11-05T03:20:19.581Z,1.30
2022-11-05T03:22:51.937Z,1.33
2022-11-05T03:25:22.449Z,1.50
2022-11-05T03:27:55.945Z,1.50
2022-11-05T03:30:23.514Z,1.60
2022-11-05T03:32:56.757Z,1.40
2022-11-05T03:35:29.082Z,1.50
2022-11-05T03:38:02.265Z,1.33
2022-11-05T03:40:35.021Z,1.30
2022-11-05T03:43:06.494Z,1.50
2022-11-05T03:45:38.202Z,1.45
2022-11-05T03:48:07.815Z,1.40
2022-11-05T03:50:41.634Z,1.30
2022-11-05T03:53:15.174Z,1.50
2022-11-05T03:55:51.217Z,1.38
2022-11-05T03:58:19.765Z,1.25
2022-11-05T04:00:47.853Z,1.63
2022-11-05T04:03:14.958Z,1.50
2022-11-05T04:05:43.703Z,1.30
2022-11-05T04:08:14.296Z,1.45
2022-11-05T04:10:42.310Z,1.30
2022-11-05T04:13:11.513Z,1.30
2022-11-05T04:15:38.845Z,1.42
2022-11-05T04:18:05.941Z,1.45
2022-11-05T04:20:33.042Z,1.33
2022-11-05T04:23:03.693Z,1.17
2022-11-05T04:25:30.869Z,1.17
2022-11-05T04:27:59.722Z,1.40
2022-11-05T04:30:27.256Z,1.27
2022-11-05T04:33:03.156Z,1.30
2022-11-05T04:35:31.929Z,1.40
2022-11-05T04:37:59.410Z,1.30
2022-11-05T04:40:28.097Z,1.30
2022-11-05T04:42:56.151Z,1.40
2022-11-05T04:45:23.673Z,1.42
2022-11-05T04:47:50.953Z,1.10
2022-11-05T04:50:18.041Z,1.20
2022-11-05T04:52:45.149Z,1.20
2022-11-05T04:55:12.400Z,1.48
2022-11-05T04:57:41.052Z,1.52
2022-11-05T05:00:09.102Z,1.40
2022-11-05T05:02:36.752Z,1.40
2022-11-05T05:05:04.812Z,1.30
2022-11-05T05:07:32.421Z,1.33
2022-11-05T05:09:59.634Z,1.50
2022-11-05T05:12:26.719Z,1.17
2022-11-05T05:14:55.242Z,1.50
2022-11-05T05:17:22.586Z,1.40
2022-11-05T05:19:49.776Z,1.30
2022-11-05T05:22:16.935Z,1.30
2022-11-05T05:24:47.355Z,1.30
2022-11-05T05:27:17.113Z,1.20
2022-11-05T05:29:44.227Z,1.50
2022-11-05T05:32:12.651Z,1.30
2022-11-05T05:34:39.758Z,1.10
2022-11-05T05:37:06.999Z,1.17
2022-11-05T05:39:34.093Z,1.30
2022-11-05T05:42:01.199Z,1.20
2022-11-05T05:44:28.298Z,1.30
2022-11-05T05:46:55.466Z,1.38
2022-11-05T05:49:23.914Z,1.40
2022-11-05T05:51:51.293Z,1.38
2022-11-05T05:54:18.392Z,1.42
2022-11-05T05:56:45.894Z,1.50
2022-11-05T05:59:13.007Z,1.33
2022-11-05T06:01:40.515Z,1.40
2022-11-05T06:04:09.215Z,1.48
2022-11-05T06:06:37.740Z,1.50
2022-11-05T06:09:04.833Z,1.48
2022-11-05T06:11:31.931Z,1.58
2022-11-05T06:13:59.048Z,1.65
2022-11-05T06:16:26.157Z,1.73
2022-11-05T06:18:53.253Z,1.55
2022-11-05T06:21:20.693Z,1.80
2022-11-05T06:23:49.112Z,1.50
2022-11-05T06:26:18.068Z,1.40
2022-11-05T06:28:45.637Z,1.40
2022-11-05T06:31:14.255Z,1.33
2022-11-05T06:33:41.862Z,1.80
2022-11-05T06:36:14.398Z,1.73
2022-11-05T06:38:41.620Z,1.50
2022-11-05T06:41:10.667Z,1.63
2022-11-05T06:43:38.570Z,1.45
2022-11-05T06:46:06.141Z,1.65
2022-11-05T06:48:33.666Z,1.17
2022-11-05T06:51:00.931Z,1.50
2022-11-05T06:53:28.048Z,1.73
2022-11-05T06:55:55.243Z,1.70
2022-11-05T06:58:23.722Z,1.50
2022-11-05T07:00:51.058Z,1.65
2022-11-05T07:03:18.214Z,1.73
2022-11-05T07:05:48.087Z,1.85
2022-11-05T07:08:15.667Z,1.70
2022-11-05T07:10:44.574Z,1.80
2022-11-05T07:13:12.313Z,2.10
2022-11-05T07:15:41.052Z,1.67
2022-11-05T07:18:08.190Z,1.60
2022-11-05T07:20:35.419Z,1.90
2022-11-05T07:23:03.115Z,1.77
2022-11-05T07:25:31.405Z,1.83
2022-11-05T07:27:58.774Z,1.65
2022-11-05T07:30:26.289Z,1.75
2022-11-05T07:32:54.768Z,1.50
2022-11-05T07:35:22.218Z,1.55
2022-11-05T07:37:51.011Z,1.52
2022-11-05T07:40:18.759Z,1.60
2022-11-05T07:42:47.235Z,1.50
2022-11-05T07:45:14.423Z,1.52
2022-11-05T07:47:46.444Z,1.52
2022-11-05T07:50:16.126Z,1.70
2022-11-05T07:52:43.494Z,1.50
2022-11-05T07:55:11.250Z,1.33
2022-11-05T07:57:41.817Z,1.85
2022-11-05T08:00:10.543Z,1.38
2022-11-05T08:02:37.863Z,1.40
2022-11-05T08:05:05.307Z,1.63
2022-11-05T08:07:33.964Z,1.23
2022-11-05T08:10:01.213Z,1.30
2022-11-05T08:12:28.305Z,1.60
2022-11-05T08:14:55.393Z,1.70
2022-11-05T08:17:22.488Z,1.52
2022-11-05T08:19:49.728Z,1.30
2022-11-05T08:22:16.841Z,1.30
2022-11-05T08:24:45.379Z,1.33
2022-11-05T08:27:12.548Z,1.08
2022-11-05T08:29:39.776Z,1.50
2022-11-05T08:32:06.891Z,1.48
2022-11-05T08:34:34.153Z,1.67
2022-11-05T08:37:01.326Z,1.27
2022-11-05T08:39:28.643Z,1.20
2022-11-05T08:41:57.165Z,1.27
2022-11-05T08:44:24.322Z,1.38
2022-11-05T08:46:51.642Z,1.75
2022-11-05T08:49:18.744Z,1.70
2022-11-05T08:51:45.877Z,1.65
2022-11-05T08:54:13.487Z,1.75
2022-11-05T08:56:40.628Z,1.95
2022-11-05T08:59:09.121Z,1.60
2022-11-05T09:01:36.331Z,1.70
2022-11-05T09:04:03.901Z,1.48
2022-11-05T09:06:31.123Z,1.50
2022-11-05T09:08:58.230Z,1.35
2022-11-05T09:11:43.035Z,1.55
2022-11-05T09:14:13.887Z,1.80
2022-11-05T09:16:42.695Z,1.50
2022-11-05T09:19:09.812Z,1.55
2022-11-05T09:21:36.921Z,1.60
2022-11-05T09:24:04.251Z,1.50
2022-11-05T09:26:31.341Z,1.63
2022-11-05T09:28:58.425Z,1.40
2022-11-05T09:31:26.921Z,1.40
2022-11-05T09:33:54.069Z,1.50
2022-11-05T09:36:21.170Z,1.52
2022-11-05T09:38:48.289Z,1.50
2022-11-05T09:41:26.778Z,1.60
2022-11-05T09:43:57.896Z,1.58
2022-11-05T09:46:28.587Z,1.40
2022-11-05T09:49:00.480Z,1.77
2022-11-05T09:51:27.677Z,1.63
2022-11-05T09:53:54.981Z,1.63
2022-11-05T09:56:24.601Z,1.50
2022-11-05T09:58:56.396Z,1.55
2022-11-05T10:01:29.398Z,1.80
2022-11-05T10:03:59.608Z,1.30
2022-11-05T10:06:27.690Z,1.65
2022-11-05T10:09:02.180Z,1.50
2022-11-05T10:11:34.215Z,1.60
2022-11-05T10:14:07.431Z,1.70
2022-11-05T10:16:39.797Z,1.48
2022-11-05T10:19:13.349Z,1.42
2022-11-05T10:24:27.966Z,1.70
2022-11-05T10:26:56.163Z,1.65
2022-11-05T10:29:26.907Z,1.92
2022-11-05T10:31:57.197Z,1.60
2022-11-05T10:34:28.706Z,1.42
2022-11-05T10:36:55.822Z,1.92
2022-11-05T10:39:25.431Z,1.13
2022-11-05T10:42:06.882Z,1.40
2022-11-05T10:44:39.688Z,1.35
2022-11-05T10:47:38.338Z,1.30
2022-11-05T10:50:10.019Z,1.30
2022-11-05T10:52:39.296Z,1.63
2022-11-05T10:55:15.962Z,1.50
2022-11-05T10:57:43.090Z,1.45
2022-11-05T11:00:27.175Z,1.35
2022-11-05T11:02:58.672Z,1.73
2022-11-05T11:05:28.647Z,1.60
2022-11-05T11:07:59.710Z,1.48
2022-11-05T11:10:27.670Z,1.60
2022-11-05T11:12:56.404Z,1.58
2022-11-05T11:15:26.598Z,1.35
2022-11-05T11:17:54.463Z,1.70
2022-11-05T11:20:26.395Z,1.50
2022-11-05T11:23:03.802Z,1.42
2022-11-05T11:25:37.767Z,1.60
2022-11-05T11:28:06.818Z,1.42
2022-11-05T11:30:34.061Z,1.45
2022-11-05T11:33:06.878Z,1.45
2022-11-05T11:35:37.594Z,1.35
2022-11-05T11:38:07.037Z,1.67
2022-11-05T11:40:36.532Z,1.65
2022-11-05T11:43:13.190Z,1.27
2022-11-05T11:45:46.504Z,1.30
2022-11-05T11:48:17.118Z,1.38
2022-11-05T11:50:47.257Z,1.17
2022-11-05T11:53:29.977Z,1.40
2022-11-05T11:56:00.058Z,1.10
2022-11-05T11:58:38.326Z,1.73
2022-11-05T12:01:17.391Z,1.23
2022-11-05T12:03:49.114Z,1.30
2022-11-05T12:06:26.926Z,1.20
2022-11-05T12:09:06.773Z,1.30
2022-11-05T12:11:39.598Z,1.30
2022-11-05T12:14:19.859Z,1.35
2022-11-05T12:17:28.225Z,1.27
2022-11-05T12:20:23.314Z,1.40
2022-11-05T12:23:26.493Z,1.58
2022-11-05T12:26:03.677Z,1.75
2022-11-05T12:29:12.203Z,1.63
2022-11-05T12:31:38.569Z,1.40
2022-11-05T12:34:22.447Z,1.27
2022-11-05T12:37:05.495Z,1.70
2022-11-05T12:39:54.572Z,1.40
2022-11-05T12:42:40.354Z,1.50
2022-11-05T12:45:22.378Z,1.63
2022-11-05T12:48:04.330Z,1.35
2022-11-05T12:50:37.997Z,1.50
2022-11-05T12:53:25.307Z,1.58
2022-11-05T12:55:57.406Z,1.20
2022-11-05T12:58:30.359Z,1.30
2022-11-05T13:01:01.567Z,1.42
2022-11-05T13:03:40.139Z,1.40
2022-11-05T13:06:11.231Z,1.30
2022-11-05T13:08:44.510Z,1.27
2022-11-05T13:11:19.278Z,1.20
2022-11-05T13:14:01.417Z,1.40
2022-11-05T13:16:33.429Z,1.33
2022-11-05T13:19:07.030Z,1.65
2022-11-05T13:21:36.107Z,1.40
2022-11-05T13:24:07.613Z,1.30
2022-11-05T13:26:43.551Z,1.25
2022-11-05T13:29:16.477Z,1.60
2022-11-05T13:31:49.684Z,1.40
2022-11-05T13:34:16.787Z,1.30
2022-11-05T13:36:51.109Z,1.70
2022-11-05T13:39:23.265Z,1.20
2022-11-05T13:42:22.592Z,1.45
2022-11-05T13:45:18.875Z,1.60
2022-11-05T13:48:19.234Z,1.70
2022-11-05T13:51:16.093Z,1.40
2022-11-05T13:54:08.572Z,1.40
2022-11-05T13:56:57.026Z,1.45
2022-11-05T13:59:49.792Z,2.00
2022-11-05T14:02:20.287Z,1.75
2022-11-05T14:04:50.316Z,1.42
2022-11-05T14:07:20.788Z,1.30
2022-11-05T14:09:54.779Z,1.35
2022-11-05T14:12:25.705Z,1.40
2022-11-05T14:15:03.319Z,1.70
2022-11-05T14:17:53.232Z,1.73
2022-11-05T14:20:37.506Z,1.60
2022-11-05T14:23:37.888Z,1.60
2022-11-05T14:26:24.258Z,1.45
2022-11-05T14:29:22.325Z,1.30
2022-11-05T14:32:11.025Z,1.30
2022-11-05T14:34:44.363Z,1.42
2022-11-05T14:37:24.342Z,1.43
2022-11-05T14:39:53.297Z,1.88
2022-11-05T14:42:25.449Z,1.58
2022-11-05T14:45:02.494Z,1.40
2022-11-05T14:47:33.884Z,1.45
2022-11-05T14:50:07.849Z,1.30
2022-11-05T14:52:37.245Z,1.50
2022-11-05T14:55:06.416Z,1.42
2022-11-05T14:58:16.059Z,1.55
2022-11-05T15:00:47.972Z,1.30
2022-11-05T15:03:35.325Z,1.25
2022-11-05T15:06:18.869Z,1.52
2022-11-05T15:09:28.926Z,1.50
2022-11-05T15:12:04.042Z,1.20
2022-11-05T15:14:34.761Z,1.40
2022-11-05T15:17:25.154Z,1.30
2022-11-05T15:19:54.572Z,1.30
2022-11-05T15:22:29.272Z,1.23
2022-11-05T15:24:56.614Z,1.40
2022-11-05T15:27:43.152Z,1.52
2022-11-05T15:30:18.923Z,1.40
2022-11-05T15:32:46.739Z,1.55
2022-11-05T15:35:23.254Z,1.40
2022-11-05T15:37:55.928Z,1.40
2022-11-05T15:40:27.907Z,1.60
2022-11-05T15:43:16.943Z,1.83
2022-11-05T15:45:57.118Z,1.55
2022-11-05T15:48:24.315Z,1.80
2022-11-05T15:50:52.908Z,1.52
2022-11-05T15:56:22.270Z,1.60
2022-11-05T15:58:52.674Z,1.60
2022-11-05T16:01:22.160Z,1.83
2022-11-05T16:03:51.301Z,1.50
2022-11-05T16:06:20.137Z,1.48
2022-11-05T16:08:49.107Z,1.50
2022-11-05T16:11:23.391Z,1.40
2022-11-05T16:13:50.960Z,1.60
2022-11-05T16:16:25.822Z,1.60
2022-11-05T16:18:53.234Z,1.52
2022-11-05T16:21:21.714Z,1.70
2022-11-05T16:23:53.826Z,2.00
2022-11-05T16:27:00.709Z,1.73
2022-11-05T16:29:23.560Z,2.03
2022-11-05T16:31:52.504Z,1.80
2022-11-05T16:34:26.047Z,1.60
2022-11-05T16:36:56.206Z,1.95
2022-11-05T16:39:23.577Z,1.80
2022-11-05T16:41:50.777Z,1.67
2022-11-05T16:44:17.921Z,2.00
2022-11-05T16:46:47.919Z,1.70
2022-11-05T16:49:15.810Z,2.30
2022-11-05T16:51:43.037Z,1.90
2022-11-05T16:54:11.456Z,1.73
2022-11-05T16:56:39.077Z,1.88
2022-11-05T16:59:07.232Z,1.80
2022-11-05T17:01:36.816Z,1.98
2022-11-05T17:04:04.017Z,1.92
2022-11-05T17:06:31.107Z,2.47
2022-11-05T17:08:58.193Z,1.90
2022-11-05T17:11:26.687Z,1.83
2022-11-05T17:13:53.791Z,1.80
2022-11-05T17:16:20.887Z,1.92
2022-11-05T17:18:48.006Z,2.10
2022-11-05T17:21:15.127Z,1.88
2022-11-05T17:23:42.293Z,2.40
2022-11-05T17:26:11.492Z,2.42
2022-11-05T17:28:40.389Z,1.90
2022-11-05T17:31:09.350Z,2.20
2022-11-05T17:33:36.498Z,1.88
2022-11-05T17:36:06.101Z,1.83
2022-11-05T17:38:33.568Z,1.88
2022-11-05T17:41:01.080Z,2.42
2022-11-05T17:43:28.197Z,2.10
2022-11-05T17:46:01.558Z,2.13
2022-11-05T17:48:31.332Z,2.40
2022-11-05T17:50:58.451Z,2.10
2022-11-05T17:53:25.622Z,2.33
2022-11-05T17:55:52.861Z,2.08
2022-11-05T17:58:19.963Z,2.28
2022-11-05T18:00:47.985Z,2.20
2022-11-05T18:03:16.831Z,2.25
2022-11-05T18:05:44.151Z,2.25
2022-11-05T18:08:11.253Z,2.10
2022-11-05T18:10:39.928Z,1.73
2022-11-05T18:13:07.201Z,2.28
2022-11-05T18:15:34.437Z,1.92
2022-11-05T18:18:01.793Z,2.13
2022-11-05T18:20:30.306Z,2.20
2022-11-05T18:22:57.422Z,2.22
2022-11-05T18:25:24.655Z,2.20
2022-11-05T18:27:51.754Z,1.90
2022-11-05T18:30:19.157Z,2.15
2022-11-05T18:32:46.330Z,2.05
2022-11-05T18:35:13.808Z,2.00
2022-11-05T18:37:42.384Z,2.22
2022-11-05T18:40:10.485Z,2.10
2022-11-05T18:42:37.996Z,2.05
2022-11-05T18:45:06.121Z,2.03
2022-11-05T18:47:33.397Z,2.03
2022-11-05T18:50:00.684Z,2.30
2022-11-05T18:52:27.834Z,1.95
2022-11-05T18:54:56.337Z,2.75
2022-11-05T18:57:23.506Z,2.15
2022-11-05T18:59:50.621Z,2.30
2022-11-05T19:02:17.892Z,1.95
2022-11-05T19:05:06.637Z,2.13
2022-11-05T19:07:35.253Z,2.10
2022-11-05T19:10:04.156Z,2.40
2022-11-05T19:12:31.306Z,2.28
2022-11-05T19:15:02.406Z,2.20
2022-11-05T19:17:32.493Z,2.35
2022-11-05T19:19:59.862Z,2.47
2022-11-05T19:22:27.131Z,2.30
2022-11-05T19:24:54.313Z,2.03
2022-11-05T19:27:23.006Z,1.92
2022-11-05T19:29:50.170Z,2.30
2022-11-05T19:32:17.659Z,2.17
2022-11-05T19:34:44.786Z,2.10
2022-11-05T19:37:11.890Z,2.03
2022-11-05T19:39:38.996Z,2.03
2022-11-05T19:42:06.809Z,2.13
2022-11-05T19:44:35.352Z,2.35
2022-11-05T19:47:02.602Z,2.00
2022-11-05T19:49:29.736Z,2.20
2022-11-05T19:51:56.835Z,2.05
2022-11-05T19:54:23.952Z,2.25
2022-11-05T19:56:51.079Z,2.15
2022-11-05T19:59:18.650Z,2.00
2022-11-05T20:01:47.871Z,2.10
2022-11-05T20:04:15.250Z,2.30
2022-11-05T20:06:42.424Z,2.15
2022-11-05T20:09:27.466Z,2.50
2022-11-05T20:11:55.393Z,2.38
2022-11-05T20:14:23.782Z,2.13
2022-11-05T20:16:52.832Z,2.03
2022-11-05T20:19:21.568Z,2.03
2022-11-05T20:21:48.761Z,2.05
2022-11-05T20:24:23.650Z,1.80
2022-11-05T20:26:52.696Z,2.30
2022-11-05T20:29:20.279Z,2.13
2022-11-05T20:31:47.628Z,2.70
2022-11-05T20:34:16.163Z,2.22
2022-11-05T20:36:43.323Z,2.40
2022-11-05T20:39:10.948Z,2.53
2022-11-05T20:41:38.120Z,2.38
2022-11-05T20:44:05.241Z,2.47
2022-11-05T20:46:32.397Z,2.40
2022-11-05T20:48:59.533Z,2.38
2022-11-05T20:51:27.985Z,2.15
2022-11-05T20:53:56.452Z,1.80
2022-11-05T20:56:26.452Z,2.03
2022-11-05T20:58:55.176Z,2.35
2022-11-05T21:01:22.408Z,1.90
2022-11-05T21:03:49.705Z,2.30
2022-11-05T21:06:17.563Z,2.60
2022-11-05T21:08:48.390Z,2.15
2022-11-05T21:11:16.187Z,2.40
2022-11-05T21:13:43.303Z,2.40
2022-11-05T21:16:15.425Z,2.70
2022-11-05T21:18:45.458Z,2.45
2022-11-05T21:21:14.532Z,2.40
2022-11-05T21:23:41.688Z,2.20
2022-11-05T21:26:13.193Z,2.50
2022-11-05T21:28:41.356Z,1.98
2022-11-05T21:31:08.835Z,2.60
2022-11-05T21:33:36.426Z,2.33
2022-11-05T21:36:06.545Z,2.58
2022-11-05T21:38:33.699Z,2.00
2022-11-05T21:41:01.198Z,2.28
2022-11-05T21:43:30.042Z,2.45
2022-11-05T21:46:00.878Z,2.50
2022-11-05T21:48:28.431Z,2.25
2022-11-05T21:50:55.517Z,2.50
2022-11-05T21:53:22.894Z,2.35
2022-11-05T21:55:50.017Z,2.80
2022-11-05T21:58:17.608Z,2.58
2022-11-05T22:00:46.060Z,2.97
2022-11-05T22:03:13.169Z,2.53
2022-11-05T22:05:40.282Z,2.70
2022-11-05T22:08:07.382Z,2.90
2022-11-05T22:10:34.616Z,2.67
2022-11-05T22:13:01.742Z,2.45
2022-11-05T22:15:28.833Z,2.42
2022-11-05T22:17:57.409Z,2.67
2022-11-05T22:20:24.628Z,2.75
2022-11-05T22:22:51.973Z,2.30
2022-11-05T22:25:19.422Z,2.20
2022-11-05T22:27:46.535Z,2.95
2022-11-05T22:30:14.347Z,2.70
2022-11-05T22:32:41.490Z,2.78
2022-11-05T22:35:10.327Z,2.58
2022-11-05T22:37:38.990Z,2.80
2022-11-05T22:40:06.971Z,2.17
2022-11-05T22:42:34.250Z,2.78
2022-11-05T22:45:01.422Z,2.30
2022-11-05T22:47:28.814Z,2.20
2022-11-05T22:49:55.904Z,2.60
2022-11-05T22:52:24.506Z,2.65
2022-11-05T22:54:51.610Z,2.40
2022-11-05T22:57:18.693Z,2.17
2022-11-05T22:59:45.889Z,2.50
2022-11-05T23:02:13.245Z,2.38
2022-11-05T23:04:40.753Z,2.28
2022-11-05T23:07:10.224Z,2.28
2022-11-05T23:09:38.773Z,2.28
2022-11-05T23:12:07.695Z,2.45
2022-11-05T23:14:35.016Z,2.30
2022-11-05T23:17:02.223Z,2.40
2022-11-05T23:19:29.995Z,2.38
2022-11-05T23:21:57.302Z,2.67
2022-11-05T23:24:24.508Z,2.20
2022-11-05T23:26:52.981Z,2.20
2022-11-05T23:29:21.761Z,2.30
2022-11-05T23:31:49.442Z,2.25
2022-11-05T23:34:16.545Z,2.60
2022-11-05T23:36:43.626Z,2.47
2022-11-05T23:39:10.723Z,2.40
2022-11-05T23:41:37.842Z,2.20
2022-11-05T23:44:06.322Z,2.72
2022-11-05T23:46:33.469Z,2.40
2022-11-05T23:49:00.556Z,2.38
2022-11-05T23:51:27.758Z,2.33
2022-11-05T23:53:54.899Z,2.40
2022-11-05T23:56:21.976Z,2.28
2022-11-05T23:58:49.235Z,2.47
